sensor_id;sensor_type;location;lat;lon;timestamp;P1;durP1;ratioP1;P2;durP2;ratioP2
13012;SDS011;22580;57.670;12.006;2023-04-25T00:02:18;4.57;;;4.17;;
13012;SDS011;22580;57.670;12.006;2023-04-25T00:04:45;4.50;;;4.10;;
13012;SDS011;22580;57.670;12.006;2023-04-25T00:07:13;4.43;;;4.03;;
13012;SDS011;22580;57.670;12.006;2023-04-25T00:09:41;3.60;;;3.30;;
13012;SDS011;22580;57.670;12.006;2023-04-25T00:12:08;4.10;;;3.80;;
13012;SDS011;22580;57.670;12.006;2023-04-25T00:14:37;4.30;;;4.00;;
13012;SDS011;22580;57.670;12.006;2023-04-25T00:17:03;4.63;;;4.23;;
13012;SDS011;22580;57.670;12.006;2023-04-25T00:19:30;4.57;;;4.17;;
13012;SDS011;22580;57.670;12.006;2023-04-25T00:21:57;3.90;;;3.60;;
13012;SDS011;22580;57.670;12.006;2023-04-25T00:24:25;4.60;;;4.20;;
13012;SDS011;22580;57.670;12.006;2023-04-25T00:26:51;4.73;;;4.33;;
13012;SDS011;22580;57.670;12.006;2023-04-25T00:29:18;4.13;;;3.77;;
13012;SDS011;22580;57.670;12.006;2023-04-25T00:31:47;3.97;;;3.67;;
13012;SDS011;22580;57.670;12.006;2023-04-25T00:34:13;3.63;;;3.33;;
13012;SDS011;22580;57.670;12.006;2023-04-25T00:36:40;3.97;;;3.57;;
13012;SDS011;22580;57.670;12.006;2023-04-25T00:39:07;4.60;;;4.20;;
13012;SDS011;22580;57.670;12.006;2023-04-25T00:41:34;5.93;;;5.33;;
13012;SDS011;22580;57.670;12.006;2023-04-25T00:44:01;4.67;;;4.27;;
13012;SDS011;22580;57.670;12.006;2023-04-25T00:46:29;4.60;;;4.20;;
13012;SDS011;22580;57.670;12.006;2023-04-25T00:48:58;3.70;;;3.40;;
13012;SDS011;22580;57.670;12.006;2023-04-25T00:51:25;3.30;;;3.10;;
13012;SDS011;22580;57.670;12.006;2023-04-25T00:53:52;3.60;;;3.30;;
13012;SDS011;22580;57.670;12.006;2023-04-25T00:56:20;3.50;;;3.20;;
13012;SDS011;22580;57.670;12.006;2023-04-25T00:58:47;4.57;;;4.17;;
13012;SDS011;22580;57.670;12.006;2023-04-25T01:01:16;4.00;;;3.70;;
13012;SDS011;22580;57.670;12.006;2023-04-25T01:03:43;3.97;;;3.57;;
13012;SDS011;22580;57.670;12.006;2023-04-25T01:06:16;3.83;;;3.53;;
13012;SDS011;22580;57.670;12.006;2023-04-25T01:08:43;3.83;;;3.53;;
13012;SDS011;22580;57.670;12.006;2023-04-25T01:11:10;4.23;;;3.83;;
13012;SDS011;22580;57.670;12.006;2023-04-25T01:13:37;3.93;;;3.63;;
13012;SDS011;22580;57.670;12.006;2023-04-25T01:16:04;4.40;;;4.03;;
13012;SDS011;22580;57.670;12.006;2023-04-25T01:18:31;4.20;;;3.90;;
13012;SDS011;22580;57.670;12.006;2023-04-25T01:21:02;3.80;;;3.50;;
13012;SDS011;22580;57.670;12.006;2023-04-25T01:23:33;3.83;;;3.43;;
13012;SDS011;22580;57.670;12.006;2023-04-25T01:26:00;3.43;;;3.20;;
13012;SDS011;22580;57.670;12.006;2023-04-25T01:28:28;3.17;;;2.90;;
13012;SDS011;22580;57.670;12.006;2023-04-25T01:30:55;3.03;;;2.83;;
13012;SDS011;22580;57.670;12.006;2023-04-25T01:33:23;2.50;;;2.30;;
13012;SDS011;22580;57.670;12.006;2023-04-25T01:35:50;2.20;;;2.10;;
13012;SDS011;22580;57.670;12.006;2023-04-25T01:38:18;2.80;;;2.60;;
13012;SDS011;22580;57.670;12.006;2023-04-25T01:40:45;2.93;;;2.63;;
13012;SDS011;22580;57.670;12.006;2023-04-25T01:43:13;2.50;;;2.30;;
13012;SDS011;22580;57.670;12.006;2023-04-25T01:45:40;2.30;;;2.10;;
13012;SDS011;22580;57.670;12.006;2023-04-25T01:48:07;2.73;;;2.53;;
13012;SDS011;22580;57.670;12.006;2023-04-25T01:50:34;2.57;;;2.37;;
13012;SDS011;22580;57.670;12.006;2023-04-25T01:53:02;2.50;;;2.30;;
13012;SDS011;22580;57.670;12.006;2023-04-25T01:55:30;2.70;;;2.50;;
13012;SDS011;22580;57.670;12.006;2023-04-25T01:57:57;1.90;;;1.80;;
13012;SDS011;22580;57.670;12.006;2023-04-25T02:00:25;2.33;;;2.17;;
13012;SDS011;22580;57.670;12.006;2023-04-25T02:02:52;2.10;;;2.00;;
13012;SDS011;22580;57.670;12.006;2023-04-25T02:05:19;2.40;;;2.30;;
13012;SDS011;22580;57.670;12.006;2023-04-25T02:07:47;3.83;;;3.47;;
13012;SDS011;22580;57.670;12.006;2023-04-25T02:10:14;3.40;;;3.10;;
13012;SDS011;22580;57.670;12.006;2023-04-25T02:12:42;2.67;;;2.47;;
13012;SDS011;22580;57.670;12.006;2023-04-25T02:15:09;2.93;;;2.73;;
13012;SDS011;22580;57.670;12.006;2023-04-25T02:17:37;2.63;;;2.43;;
13012;SDS011;22580;57.670;12.006;2023-04-25T02:20:05;3.53;;;3.23;;
13012;SDS011;22580;57.670;12.006;2023-04-25T02:22:32;3.40;;;3.20;;
13012;SDS011;22580;57.670;12.006;2023-04-25T02:25:00;3.20;;;2.90;;
13012;SDS011;22580;57.670;12.006;2023-04-25T02:27:29;3.57;;;3.27;;
13012;SDS011;22580;57.670;12.006;2023-04-25T02:29:58;3.00;;;2.80;;
13012;SDS011;22580;57.670;12.006;2023-04-25T02:32:25;3.10;;;2.90;;
13012;SDS011;22580;57.670;12.006;2023-04-25T02:34:52;2.30;;;2.20;;
13012;SDS011;22580;57.670;12.006;2023-04-25T02:37:20;2.97;;;2.77;;
13012;SDS011;22580;57.670;12.006;2023-04-25T02:39:46;2.50;;;2.30;;
13012;SDS011;22580;57.670;12.006;2023-04-25T02:42:15;2.63;;;2.43;;
13012;SDS011;22580;57.670;12.006;2023-04-25T02:44:42;2.57;;;2.37;;
13012;SDS011;22580;57.670;12.006;2023-04-25T02:47:10;2.50;;;2.30;;
13012;SDS011;22580;57.670;12.006;2023-04-25T02:49:37;2.13;;;2.03;;
13012;SDS011;22580;57.670;12.006;2023-04-25T02:52:04;1.70;;;1.60;;
13012;SDS011;22580;57.670;12.006;2023-04-25T02:54:31;1.90;;;1.80;;
13012;SDS011;22580;57.670;12.006;2023-04-25T02:56:57;1.70;;;1.60;;
13012;SDS011;22580;57.670;12.006;2023-04-25T02:59:25;2.10;;;2.00;;
13012;SDS011;22580;57.670;12.006;2023-04-25T03:01:52;1.87;;;1.50;;
13012;SDS011;22580;57.670;12.006;2023-04-25T03:04:20;2.70;;;2.50;;
13012;SDS011;22580;57.670;12.006;2023-04-25T03:06:48;2.70;;;2.50;;
13012;SDS011;22580;57.670;12.006;2023-04-25T03:09:15;2.40;;;2.20;;
13012;SDS011;22580;57.670;12.006;2023-04-25T03:11:43;2.00;;;1.90;;
13012;SDS011;22580;57.670;12.006;2023-04-25T03:14:11;2.00;;;1.83;;
13012;SDS011;22580;57.670;12.006;2023-04-25T03:16:37;2.17;;;2.07;;
13012;SDS011;22580;57.670;12.006;2023-04-25T03:19:04;2.47;;;2.27;;
13012;SDS011;22580;57.670;12.006;2023-04-25T03:21:33;2.10;;;2.00;;
13012;SDS011;22580;57.670;12.006;2023-04-25T03:24:02;2.80;;;2.60;;
13012;SDS011;22580;57.670;12.006;2023-04-25T03:26:30;2.20;;;2.10;;
13012;SDS011;22580;57.670;12.006;2023-04-25T03:28:57;2.67;;;2.47;;
13012;SDS011;22580;57.670;12.006;2023-04-25T03:31:23;2.73;;;2.53;;
13012;SDS011;22580;57.670;12.006;2023-04-25T03:33:50;3.10;;;2.90;;
13012;SDS011;22580;57.670;12.006;2023-04-25T03:36:17;3.00;;;2.80;;
13012;SDS011;22580;57.670;12.006;2023-04-25T03:38:46;2.93;;;2.73;;
13012;SDS011;22580;57.670;12.006;2023-04-25T03:41:13;2.33;;;2.13;;
13012;SDS011;22580;57.670;12.006;2023-04-25T03:43:40;2.13;;;2.03;;
13012;SDS011;22580;57.670;12.006;2023-04-25T03:46:07;2.47;;;2.30;;
13012;SDS011;22580;57.670;12.006;2023-04-25T03:48:34;3.00;;;2.80;;
13012;SDS011;22580;57.670;12.006;2023-04-25T03:51:01;2.50;;;2.30;;
13012;SDS011;22580;57.670;12.006;2023-04-25T03:53:28;2.07;;;1.97;;
13012;SDS011;22580;57.670;12.006;2023-04-25T03:55:56;2.00;;;1.90;;
13012;SDS011;22580;57.670;12.006;2023-04-25T03:58:23;2.50;;;2.30;;
13012;SDS011;22580;57.670;12.006;2023-04-25T04:00:50;2.50;;;2.40;;
13012;SDS011;22580;57.670;12.006;2023-04-25T04:03:17;2.13;;;2.03;;
13012;SDS011;22580;57.670;12.006;2023-04-25T04:05:45;2.10;;;2.00;;
13012;SDS011;22580;57.670;12.006;2023-04-25T04:08:12;1.97;;;1.87;;
13012;SDS011;22580;57.670;12.006;2023-04-25T04:10:39;1.90;;;1.80;;
13012;SDS011;22580;57.670;12.006;2023-04-25T04:13:07;1.83;;;1.73;;
13012;SDS011;22580;57.670;12.006;2023-04-25T04:15:34;1.83;;;1.73;;
13012;SDS011;22580;57.670;12.006;2023-04-25T04:18:03;1.67;;;1.57;;
13012;SDS011;22580;57.670;12.006;2023-04-25T04:20:31;2.20;;;2.10;;
13012;SDS011;22580;57.670;12.006;2023-04-25T04:22:58;2.13;;;2.03;;
13012;SDS011;22580;57.670;12.006;2023-04-25T04:25:25;1.90;;;1.80;;
13012;SDS011;22580;57.670;12.006;2023-04-25T04:27:51;2.40;;;2.20;;
13012;SDS011;22580;57.670;12.006;2023-04-25T04:30:21;2.27;;;2.17;;
13012;SDS011;22580;57.670;12.006;2023-04-25T04:32:50;2.10;;;2.00;;
13012;SDS011;22580;57.670;12.006;2023-04-25T04:35:17;2.30;;;2.20;;
13012;SDS011;22580;57.670;12.006;2023-04-25T04:37:55;2.50;;;2.30;;
13012;SDS011;22580;57.670;12.006;2023-04-25T04:40:22;3.83;;;3.50;;
13012;SDS011;22580;57.670;12.006;2023-04-25T04:42:50;3.43;;;3.13;;
13012;SDS011;22580;57.670;12.006;2023-04-25T04:45:18;2.70;;;2.50;;
13012;SDS011;22580;57.670;12.006;2023-04-25T04:47:47;4.33;;;3.50;;
13012;SDS011;22580;57.670;12.006;2023-04-25T04:50:14;3.30;;;3.00;;
13012;SDS011;22580;57.670;12.006;2023-04-25T04:52:41;3.20;;;2.90;;
13012;SDS011;22580;57.670;12.006;2023-04-25T04:55:08;2.10;;;2.00;;
13012;SDS011;22580;57.670;12.006;2023-04-25T04:57:35;2.83;;;2.40;;
13012;SDS011;22580;57.670;12.006;2023-04-25T05:00:04;1.87;;;1.77;;
13012;SDS011;22580;57.670;12.006;2023-04-25T05:02:35;1.90;;;1.80;;
13012;SDS011;22580;57.670;12.006;2023-04-25T05:05:04;1.90;;;1.80;;
13012;SDS011;22580;57.670;12.006;2023-04-25T05:07:32;2.00;;;1.90;;
13012;SDS011;22580;57.670;12.006;2023-04-25T05:09:59;1.73;;;1.63;;
13012;SDS011;22580;57.670;12.006;2023-04-25T05:12:26;1.83;;;1.60;;
13012;SDS011;22580;57.670;12.006;2023-04-25T05:14:52;2.03;;;1.93;;
13012;SDS011;22580;57.670;12.006;2023-04-25T05:17:21;1.70;;;1.60;;
13012;SDS011;22580;57.670;12.006;2023-04-25T05:19:48;1.50;;;1.20;;
13012;SDS011;22580;57.670;12.006;2023-04-25T05:22:16;1.73;;;1.20;;
13012;SDS011;22580;57.670;12.006;2023-04-25T05:24:44;1.30;;;1.20;;
13012;SDS011;22580;57.670;12.006;2023-04-25T05:27:11;1.50;;;1.40;;
13012;SDS011;22580;57.670;12.006;2023-04-25T05:29:37;1.27;;;1.20;;
13012;SDS011;22580;57.670;12.006;2023-04-25T05:32:05;1.40;;;1.30;;
13012;SDS011;22580;57.670;12.006;2023-04-25T05:34:32;1.40;;;1.30;;
13012;SDS011;22580;57.670;12.006;2023-04-25T05:36:59;1.20;;;1.20;;
13012;SDS011;22580;57.670;12.006;2023-04-25T05:39:28;1.73;;;1.63;;
13012;SDS011;22580;57.670;12.006;2023-04-25T05:41:55;1.70;;;1.60;;
13012;SDS011;22580;57.670;12.006;2023-04-25T05:44:21;1.40;;;1.30;;
13012;SDS011;22580;57.670;12.006;2023-04-25T05:46:48;0.97;;;0.97;;
13012;SDS011;22580;57.670;12.006;2023-04-25T05:49:15;0.70;;;0.70;;
13012;SDS011;22580;57.670;12.006;2023-04-25T05:51:42;1.00;;;1.00;;
13012;SDS011;22580;57.670;12.006;2023-04-25T05:54:09;1.20;;;1.20;;
13012;SDS011;22580;57.670;12.006;2023-04-25T05:56:37;1.40;;;1.30;;
13012;SDS011;22580;57.670;12.006;2023-04-25T05:59:04;1.60;;;1.27;;
13012;SDS011;22580;57.670;12.006;2023-04-25T06:01:31;1.57;;;1.47;;
13012;SDS011;22580;57.670;12.006;2023-04-25T06:03:58;1.70;;;1.60;;
13012;SDS011;22580;57.670;12.006;2023-04-25T06:06:25;1.63;;;1.53;;
13012;SDS011;22580;57.670;12.006;2023-04-25T06:08:52;1.90;;;1.67;;
13012;SDS011;22580;57.670;12.006;2023-04-25T06:11:19;1.97;;;1.80;;
13012;SDS011;22580;57.670;12.006;2023-04-25T06:13:47;1.93;;;1.83;;
13012;SDS011;22580;57.670;12.006;2023-04-25T06:16:14;2.10;;;2.00;;
13012;SDS011;22580;57.670;12.006;2023-04-25T06:18:41;1.70;;;1.60;;
13012;SDS011;22580;57.670;12.006;2023-04-25T06:21:08;1.60;;;1.50;;
13012;SDS011;22580;57.670;12.006;2023-04-25T06:23:35;1.50;;;1.23;;
13012;SDS011;22580;57.670;12.006;2023-04-25T06:26:02;1.00;;;0.90;;
13012;SDS011;22580;57.670;12.006;2023-04-25T06:28:29;1.03;;;1.00;;
13012;SDS011;22580;57.670;12.006;2023-04-25T06:30:57;0.83;;;0.83;;
13012;SDS011;22580;57.670;12.006;2023-04-25T06:33:24;1.23;;;0.80;;
13012;SDS011;22580;57.670;12.006;2023-04-25T06:35:51;1.37;;;0.70;;
13012;SDS011;22580;57.670;12.006;2023-04-25T06:38:18;2.33;;;1.13;;
13012;SDS011;22580;57.670;12.006;2023-04-25T06:40:45;0.83;;;0.83;;
13012;SDS011;22580;57.670;12.006;2023-04-25T06:43:12;2.50;;;1.20;;
13012;SDS011;22580;57.670;12.006;2023-04-25T06:45:39;2.27;;;0.93;;
13012;SDS011;22580;57.670;12.006;2023-04-25T06:48:08;0.93;;;0.93;;
13012;SDS011;22580;57.670;12.006;2023-04-25T06:50:35;1.53;;;1.00;;
13012;SDS011;22580;57.670;12.006;2023-04-25T06:53:02;0.90;;;0.80;;
13012;SDS011;22580;57.670;12.006;2023-04-25T06:55:29;0.73;;;0.73;;
13012;SDS011;22580;57.670;12.006;2023-04-25T06:57:56;0.67;;;0.50;;
13012;SDS011;22580;57.670;12.006;2023-04-25T07:00:23;0.37;;;0.37;;
13012;SDS011;22580;57.670;12.006;2023-04-25T07:02:51;0.70;;;0.60;;
13012;SDS011;22580;57.670;12.006;2023-04-25T07:05:19;0.50;;;0.50;;
13012;SDS011;22580;57.670;12.006;2023-04-25T07:07:46;0.60;;;0.50;;
13012;SDS011;22580;57.670;12.006;2023-04-25T07:10:13;1.00;;;0.70;;
13012;SDS011;22580;57.670;12.006;2023-04-25T07:12:40;2.00;;;0.70;;
13012;SDS011;22580;57.670;12.006;2023-04-25T07:15:07;1.13;;;0.57;;
13012;SDS011;22580;57.670;12.006;2023-04-25T07:17:35;1.60;;;0.80;;
13012;SDS011;22580;57.670;12.006;2023-04-25T07:20:02;0.53;;;0.50;;
13012;SDS011;22580;57.670;12.006;2023-04-25T07:22:32;0.40;;;0.40;;
13012;SDS011;22580;57.670;12.006;2023-04-25T07:24:59;0.93;;;0.50;;
13012;SDS011;22580;57.670;12.006;2023-04-25T07:27:26;0.97;;;0.40;;
13012;SDS011;22580;57.670;12.006;2023-04-25T07:29:53;0.97;;;0.30;;
13012;SDS011;22580;57.670;12.006;2023-04-25T07:32:20;1.13;;;0.40;;
13012;SDS011;22580;57.670;12.006;2023-04-25T07:34:46;0.33;;;0.33;;
13012;SDS011;22580;57.670;12.006;2023-04-25T07:37:13;0.40;;;0.20;;
13012;SDS011;22580;57.670;12.006;2023-04-25T07:39:42;0.40;;;0.30;;
13012;SDS011;22580;57.670;12.006;2023-04-25T07:42:11;0.30;;;0.20;;
13012;SDS011;22580;57.670;12.006;2023-04-25T07:44:37;0.70;;;0.30;;
13012;SDS011;22580;57.670;12.006;2023-04-25T07:47:11;0.30;;;0.30;;
13012;SDS011;22580;57.670;12.006;2023-04-25T07:49:38;0.47;;;0.47;;
13012;SDS011;22580;57.670;12.006;2023-04-25T07:52:06;2.00;;;0.50;;
13012;SDS011;22580;57.670;12.006;2023-04-25T07:54:33;0.40;;;0.40;;
13012;SDS011;22580;57.670;12.006;2023-04-25T07:57:02;0.63;;;0.20;;
13012;SDS011;22580;57.670;12.006;2023-04-25T07:59:31;0.50;;;0.40;;
13012;SDS011;22580;57.670;12.006;2023-04-25T08:01:58;0.43;;;0.33;;
13012;SDS011;22580;57.670;12.006;2023-04-25T08:04:25;1.83;;;0.30;;
13012;SDS011;22580;57.670;12.006;2023-04-25T08:06:52;0.37;;;0.33;;
13012;SDS011;22580;57.670;12.006;2023-04-25T08:09:19;0.80;;;0.50;;
13012;SDS011;22580;57.670;12.006;2023-04-25T08:11:46;0.77;;;0.40;;
13012;SDS011;22580;57.670;12.006;2023-04-25T08:14:15;1.10;;;0.40;;
13012;SDS011;22580;57.670;12.006;2023-04-25T08:16:42;0.73;;;0.30;;
13012;SDS011;22580;57.670;12.006;2023-04-25T08:19:09;1.37;;;0.30;;
13012;SDS011;22580;57.670;12.006;2023-04-25T08:21:36;0.87;;;0.40;;
13012;SDS011;22580;57.670;12.006;2023-04-25T08:24:03;0.30;;;0.30;;
13012;SDS011;22580;57.670;12.006;2023-04-25T08:26:30;1.37;;;0.70;;
13012;SDS011;22580;57.670;12.006;2023-04-25T08:28:57;0.17;;;0.13;;
13012;SDS011;22580;57.670;12.006;2023-04-25T08:31:25;0.40;;;0.30;;
13012;SDS011;22580;57.670;12.006;2023-04-25T08:33:52;0.93;;;0.30;;
13012;SDS011;22580;57.670;12.006;2023-04-25T08:36:19;0.57;;;0.40;;
13012;SDS011;22580;57.670;12.006;2023-04-25T08:38:46;0.40;;;0.20;;
13012;SDS011;22580;57.670;12.006;2023-04-25T08:41:13;0.67;;;0.30;;
13012;SDS011;22580;57.670;12.006;2023-04-25T08:43:42;0.13;;;0.13;;
13012;SDS011;22580;57.670;12.006;2023-04-25T08:46:10;0.50;;;0.30;;
13012;SDS011;22580;57.670;12.006;2023-04-25T08:48:40;1.50;;;0.30;;
13012;SDS011;22580;57.670;12.006;2023-04-25T08:51:09;0.20;;;0.20;;
13012;SDS011;22580;57.670;12.006;2023-04-25T08:53:37;1.00;;;0.20;;
13012;SDS011;22580;57.670;12.006;2023-04-25T08:56:08;0.77;;;0.40;;
13012;SDS011;22580;57.670;12.006;2023-04-25T08:58:38;0.37;;;0.30;;
13012;SDS011;22580;57.670;12.006;2023-04-25T09:01:05;0.40;;;0.27;;
13012;SDS011;22580;57.670;12.006;2023-04-25T09:03:32;0.60;;;0.20;;
13012;SDS011;22580;57.670;12.006;2023-04-25T09:06:01;0.40;;;0.30;;
13012;SDS011;22580;57.670;12.006;2023-04-25T09:08:28;1.10;;;0.30;;
13012;SDS011;22580;57.670;12.006;2023-04-25T09:10:55;0.10;;;0.10;;
13012;SDS011;22580;57.670;12.006;2023-04-25T09:13:26;0.33;;;0.33;;
13012;SDS011;22580;57.670;12.006;2023-04-25T09:15:54;0.40;;;0.40;;
13012;SDS011;22580;57.670;12.006;2023-04-25T09:18:22;0.30;;;0.30;;
13012;SDS011;22580;57.670;12.006;2023-04-25T09:20:51;0.97;;;0.27;;
13012;SDS011;22580;57.670;12.006;2023-04-25T09:23:21;0.40;;;0.30;;
13012;SDS011;22580;57.670;12.006;2023-04-25T09:25:49;0.10;;;0.10;;
13012;SDS011;22580;57.670;12.006;2023-04-25T09:28:17;1.13;;;0.40;;
13012;SDS011;22580;57.670;12.006;2023-04-25T09:30:54;0.70;;;0.50;;
13012;SDS011;22580;57.670;12.006;2023-04-25T09:33:23;0.63;;;0.20;;
13012;SDS011;22580;57.670;12.006;2023-04-25T09:35:54;0.77;;;0.30;;
13012;SDS011;22580;57.670;12.006;2023-04-25T09:38:30;0.20;;;0.20;;
13012;SDS011;22580;57.670;12.006;2023-04-25T09:40:59;0.70;;;0.20;;
13012;SDS011;22580;57.670;12.006;2023-04-25T09:43:26;0.20;;;0.20;;
13012;SDS011;22580;57.670;12.006;2023-04-25T09:45:54;0.20;;;0.20;;
13012;SDS011;22580;57.670;12.006;2023-04-25T09:48:25;0.40;;;0.30;;
13012;SDS011;22580;57.670;12.006;2023-04-25T09:51:06;0.30;;;0.30;;
13012;SDS011;22580;57.670;12.006;2023-04-25T09:53:36;1.30;;;0.20;;
13012;SDS011;22580;57.670;12.006;2023-04-25T09:56:04;0.30;;;0.30;;
13012;SDS011;22580;57.670;12.006;2023-04-25T09:58:32;1.43;;;0.37;;
13012;SDS011;22580;57.670;12.006;2023-04-25T10:01:01;1.50;;;0.90;;
13012;SDS011;22580;57.670;12.006;2023-04-25T10:03:29;2.07;;;0.93;;
13012;SDS011;22580;57.670;12.006;2023-04-25T10:05:57;1.20;;;0.67;;
13012;SDS011;22580;57.670;12.006;2023-04-25T10:08:33;2.10;;;0.80;;
13012;SDS011;22580;57.670;12.006;2023-04-25T10:11:03;0.97;;;0.43;;
13012;SDS011;22580;57.670;12.006;2023-04-25T10:13:32;0.70;;;0.40;;
13012;SDS011;22580;57.670;12.006;2023-04-25T10:16:01;0.43;;;0.30;;
13012;SDS011;22580;57.670;12.006;2023-04-25T10:18:29;0.27;;;0.23;;
13012;SDS011;22580;57.670;12.006;2023-04-25T10:20:57;0.23;;;0.20;;
13012;SDS011;22580;57.670;12.006;2023-04-25T10:23:26;0.20;;;0.20;;
13012;SDS011;22580;57.670;12.006;2023-04-25T10:25:55;0.30;;;0.23;;
13012;SDS011;22580;57.670;12.006;2023-04-25T10:28:23;0.20;;;0.20;;
13012;SDS011;22580;57.670;12.006;2023-04-25T10:30:56;0.80;;;0.40;;
13012;SDS011;22580;57.670;12.006;2023-04-25T10:33:32;0.20;;;0.20;;
13012;SDS011;22580;57.670;12.006;2023-04-25T10:36:08;2.13;;;0.40;;
13012;SDS011;22580;57.670;12.006;2023-04-25T10:38:35;1.70;;;0.20;;
13012;SDS011;22580;57.670;12.006;2023-04-25T10:41:05;0.37;;;0.20;;
13012;SDS011;22580;57.670;12.006;2023-04-25T10:43:35;0.30;;;0.30;;
13012;SDS011;22580;57.670;12.006;2023-04-25T10:46:12;0.20;;;0.20;;
13012;SDS011;22580;57.670;12.006;2023-04-25T10:48:44;1.63;;;0.40;;
13012;SDS011;22580;57.670;12.006;2023-04-25T10:51:16;0.30;;;0.30;;
13012;SDS011;22580;57.670;12.006;2023-04-25T10:53:44;0.50;;;0.30;;
13012;SDS011;22580;57.670;12.006;2023-04-25T10:56:18;0.70;;;0.20;;
13012;SDS011;22580;57.670;12.006;2023-04-25T10:58:46;1.50;;;0.50;;
13012;SDS011;22580;57.670;12.006;2023-04-25T11:01:15;1.43;;;0.50;;
13012;SDS011;22580;57.670;12.006;2023-04-25T11:03:46;0.30;;;0.20;;
13012;SDS011;22580;57.670;12.006;2023-04-25T11:06:18;0.30;;;0.30;;
13012;SDS011;22580;57.670;12.006;2023-04-25T11:08:50;0.43;;;0.33;;
13012;SDS011;22580;57.670;12.006;2023-04-25T11:11:19;0.30;;;0.30;;
13012;SDS011;22580;57.670;12.006;2023-04-25T11:13:47;1.37;;;0.37;;
13012;SDS011;22580;57.670;12.006;2023-04-25T11:16:15;0.97;;;0.60;;
13012;SDS011;22580;57.670;12.006;2023-04-25T11:18:42;0.53;;;0.30;;
13012;SDS011;22580;57.670;12.006;2023-04-25T11:21:09;0.30;;;0.30;;
13012;SDS011;22580;57.670;12.006;2023-04-25T11:23:36;0.33;;;0.33;;
13012;SDS011;22580;57.670;12.006;2023-04-25T11:26:04;0.40;;;0.30;;
13012;SDS011;22580;57.670;12.006;2023-04-25T11:28:32;0.30;;;0.30;;
13012;SDS011;22580;57.670;12.006;2023-04-25T11:30:59;0.40;;;0.40;;
13012;SDS011;22580;57.670;12.006;2023-04-25T11:33:26;0.30;;;0.30;;
13012;SDS011;22580;57.670;12.006;2023-04-25T11:35:53;0.43;;;0.40;;
13012;SDS011;22580;57.670;12.006;2023-04-25T11:38:22;0.30;;;0.23;;
13012;SDS011;22580;57.670;12.006;2023-04-25T11:40:51;0.93;;;0.50;;
13012;SDS011;22580;57.670;12.006;2023-04-25T11:43:19;0.40;;;0.40;;
13012;SDS011;22580;57.670;12.006;2023-04-25T11:45:48;0.50;;;0.30;;
13012;SDS011;22580;57.670;12.006;2023-04-25T11:48:17;0.60;;;0.40;;
13012;SDS011;22580;57.670;12.006;2023-04-25T11:50:45;0.50;;;0.50;;
13012;SDS011;22580;57.670;12.006;2023-04-25T11:53:12;0.50;;;0.50;;
13012;SDS011;22580;57.670;12.006;2023-04-25T11:55:39;1.17;;;0.47;;
13012;SDS011;22580;57.670;12.006;2023-04-25T11:58:07;1.13;;;0.60;;
13012;SDS011;22580;57.670;12.006;2023-04-25T12:00:34;0.43;;;0.30;;
13012;SDS011;22580;57.670;12.006;2023-04-25T12:03:03;0.40;;;0.40;;
13012;SDS011;22580;57.670;12.006;2023-04-25T12:05:30;0.60;;;0.60;;
13012;SDS011;22580;57.670;12.006;2023-04-25T12:08:09;1.37;;;0.60;;
13012;SDS011;22580;57.670;12.006;2023-04-25T12:10:38;1.70;;;0.50;;
13012;SDS011;22580;57.670;12.006;2023-04-25T12:15:54;0.50;;;0.50;;
13012;SDS011;22580;57.670;12.006;2023-04-25T12:18:24;0.50;;;0.40;;
13012;SDS011;22580;57.670;12.006;2023-04-25T12:20:52;0.80;;;0.50;;
13012;SDS011;22580;57.670;12.006;2023-04-25T12:23:28;0.40;;;0.40;;
13012;SDS011;22580;57.670;12.006;2023-04-25T12:25:57;0.43;;;0.40;;
13012;SDS011;22580;57.670;12.006;2023-04-25T12:28:26;0.30;;;0.30;;
13012;SDS011;22580;57.670;12.006;2023-04-25T12:30:59;0.60;;;0.43;;
13012;SDS011;22580;57.670;12.006;2023-04-25T12:33:30;1.40;;;0.43;;
13012;SDS011;22580;57.670;12.006;2023-04-25T12:35:58;0.63;;;0.53;;
13012;SDS011;22580;57.670;12.006;2023-04-25T12:38:30;0.97;;;0.50;;
13012;SDS011;22580;57.670;12.006;2023-04-25T12:40:59;0.30;;;0.30;;
13012;SDS011;22580;57.670;12.006;2023-04-25T12:43:26;0.70;;;0.60;;
13012;SDS011;22580;57.670;12.006;2023-04-25T12:45:54;0.47;;;0.47;;
13012;SDS011;22580;57.670;12.006;2023-04-25T12:48:22;0.30;;;0.30;;
13012;SDS011;22580;57.670;12.006;2023-04-25T12:50:51;0.67;;;0.67;;
13012;SDS011;22580;57.670;12.006;2023-04-25T12:53:18;0.50;;;0.50;;
13012;SDS011;22580;57.670;12.006;2023-04-25T12:55:46;0.40;;;0.40;;
13012;SDS011;22580;57.670;12.006;2023-04-25T12:58:14;1.47;;;0.50;;
13012;SDS011;22580;57.670;12.006;2023-04-25T13:00:41;1.10;;;0.53;;
13012;SDS011;22580;57.670;12.006;2023-04-25T13:03:08;0.50;;;0.50;;
13012;SDS011;22580;57.670;12.006;2023-04-25T13:05:35;0.30;;;0.30;;
13012;SDS011;22580;57.670;12.006;2023-04-25T13:08:05;0.30;;;0.30;;
13012;SDS011;22580;57.670;12.006;2023-04-25T13:10:35;0.60;;;0.40;;
13012;SDS011;22580;57.670;12.006;2023-04-25T13:13:03;1.07;;;0.40;;
13012;SDS011;22580;57.670;12.006;2023-04-25T13:15:30;0.70;;;0.47;;
13012;SDS011;22580;57.670;12.006;2023-04-25T13:17:57;0.30;;;0.30;;
13012;SDS011;22580;57.670;12.006;2023-04-25T13:20:24;0.40;;;0.40;;
13012;SDS011;22580;57.670;12.006;2023-04-25T13:22:51;0.90;;;0.33;;
13012;SDS011;22580;57.670;12.006;2023-04-25T13:25:19;0.70;;;0.47;;
13012;SDS011;22580;57.670;12.006;2023-04-25T13:27:46;0.37;;;0.30;;
13012;SDS011;22580;57.670;12.006;2023-04-25T13:30:13;1.17;;;0.50;;
13012;SDS011;22580;57.670;12.006;2023-04-25T13:32:40;0.70;;;0.57;;
13012;SDS011;22580;57.670;12.006;2023-04-25T13:35:08;0.40;;;0.40;;
13012;SDS011;22580;57.670;12.006;2023-04-25T13:37:36;2.30;;;0.50;;
13012;SDS011;22580;57.670;12.006;2023-04-25T13:40:04;0.70;;;0.70;;
13012;SDS011;22580;57.670;12.006;2023-04-25T13:42:35;2.00;;;0.40;;
13012;SDS011;22580;57.670;12.006;2023-04-25T13:45:03;0.40;;;0.40;;
13012;SDS011;22580;57.670;12.006;2023-04-25T13:47:30;0.67;;;0.30;;
13012;SDS011;22580;57.670;12.006;2023-04-25T13:49:57;0.70;;;0.70;;
13012;SDS011;22580;57.670;12.006;2023-04-25T13:52:28;0.60;;;0.57;;
13012;SDS011;22580;57.670;12.006;2023-04-25T13:54:55;0.60;;;0.50;;
13012;SDS011;22580;57.670;12.006;2023-04-25T13:57:22;0.47;;;0.47;;
13012;SDS011;22580;57.670;12.006;2023-04-25T13:59:50;0.50;;;0.50;;
13012;SDS011;22580;57.670;12.006;2023-04-25T14:02:18;0.50;;;0.50;;
13012;SDS011;22580;57.670;12.006;2023-04-25T14:04:44;0.33;;;0.30;;
13012;SDS011;22580;57.670;12.006;2023-04-25T14:07:11;0.40;;;0.40;;
13012;SDS011;22580;57.670;12.006;2023-04-25T14:09:41;0.50;;;0.50;;
13012;SDS011;22580;57.670;12.006;2023-04-25T14:12:08;0.40;;;0.40;;
13012;SDS011;22580;57.670;12.006;2023-04-25T14:14:35;0.50;;;0.50;;
13012;SDS011;22580;57.670;12.006;2023-04-25T14:17:04;0.40;;;0.40;;
13012;SDS011;22580;57.670;12.006;2023-04-25T14:19:31;0.40;;;0.40;;
13012;SDS011;22580;57.670;12.006;2023-04-25T14:21:59;0.50;;;0.50;;
13012;SDS011;22580;57.670;12.006;2023-04-25T14:24:25;0.43;;;0.43;;
13012;SDS011;22580;57.670;12.006;2023-04-25T14:26:53;0.33;;;0.33;;
13012;SDS011;22580;57.670;12.006;2023-04-25T14:29:20;0.40;;;0.40;;
13012;SDS011;22580;57.670;12.006;2023-04-25T14:31:47;0.50;;;0.43;;
13012;SDS011;22580;57.670;12.006;2023-04-25T14:34:16;0.40;;;0.40;;
13012;SDS011;22580;57.670;12.006;2023-04-25T14:36:43;0.30;;;0.30;;
13012;SDS011;22580;57.670;12.006;2023-04-25T14:39:10;0.27;;;0.27;;
13012;SDS011;22580;57.670;12.006;2023-04-25T14:41:37;0.30;;;0.30;;